Time;durP1;ratioP1;P1;durP2;ratioP2;P2;SDS_P1;SDS_P2;PMS_P1;PMS_P2;Temp;Humidity;BMP_temperature;BMP_pressure;BME280_temperature;BME280_humidity;BME280_pressure;Samples;Min_cycle;Max_cycle;Signal;HPM_P1;HPM_P2
2023/07/25 00:11:30;;;;;;;;;;;;;;;;;;5111798;27;19922;-66
2023/07/25 00:13:55;;;;;;;;;;;;;;;;;;5111152;28;19995;-66
2023/07/25 00:16:21;;;;;;;;;;;;;;;;;;5111643;28;19908;-66
2023/07/25 00:18:47;;;;;;;;;;;;;;;;;;5111414;28;19914;-67
2023/07/25 00:21:13;;;;;;;;;;;;;;;;;;5111173;28;19995;-66
2023/07/25 00:30:56;;;;;;;;;;;;;;;;;;5153246;27;19911;-67
2023/07/25 00:33:52;;;;;;;;;;;;;;;;;;5111828;27;19916;-67
2023/07/25 00:36:18;;;;;;;;;;;;;;;;;;5111697;28;19912;-66
2023/07/25 00:38:44;;;;;;;;;;;;;;;;;;5111472;28;19961;-67
2023/07/25 00:41:10;;;;;;;;;;;;;;;;;;5111324;28;19915;-66
2023/07/25 00:43:58;;;;;;;;;;;;;;;;;;5152857;27;19911;-66
2023/07/25 00:54:50;;;;;;;;;;;;;;;;;;5111683;27;19923;-66
2023/07/25 00:57:16;;;;;;;;;;;;;;;;;;5111781;28;19920;-66
2023/07/25 00:59:42;;;;;;;;;;;;;;;;;;5111571;28;19912;-66
2023/07/25 01:02:08;;;;;;;;;;;;;;;;;;5111410;28;20308;-66
2023/07/25 01:06:37;;;;;;;;;;;;;;;;;;5091099;27;20292;-66
2023/07/25 01:09:03;;;;;;;;;;;;;;;;;;5091428;28;20004;-66
2023/07/25 01:12:37;;;;;;;;;;;;;;;;;;5111893;27;19918;-66
2023/07/25 01:16:31;;;;;;;;;;;;;;;;;;5111214;27;19912;-66
2023/07/25 01:18:57;;;;;;;;;;;;;;;;;;5111684;28;19999;-67
2023/07/25 01:21:23;;;;;;;;;;;;;;;;;;5111483;28;20283;-66
2023/07/25 01:25:26;;;;;;;;;;;;;;;;;;5111892;27;19923;-66
2023/07/25 01:32:40;;;;;;;;;;;;;;;;;;5091310;27;19918;-68
2023/07/25 01:39:10;;;;;;;;;;;;;;;;;;5111452;27;19916;-67
2023/07/25 01:41:36;;;;;;;;;;;;;;;;;;5111814;28;20348;-70
2023/07/25 01:47:08;;;;;;;;;;;;;;;;;;5091573;28;19923;-68
2023/07/25 01:49:34;;;;;;;;;;;;;;;;;;5091414;28;20011;-67
2023/07/25 01:52:00;;;;;;;;;;;;;;;;;;5090964;28;19908;-68
2023/07/25 02:01:35;;;;;;;;;;;;;;;;;;5153205;27;20092;-66
2023/07/25 02:08:59;;;;;;;461.30;233.40;;;;;;;;;;5111171;27;20355;-67
2023/07/25 02:11:25;;;;;;;;;;;;;;;;;;5110982;28;20418;-68
2023/07/25 02:13:51;;;;;;;440.37;221.63;;;;;;;;;;5109785;28;20732;-68
2023/07/25 02:16:18;;;;;;;364.85;215.27;;;;;;;;;;5110519;28;20382;-68
2023/07/25 02:18:44;;;;;;;342.10;208.55;;;;;;;;;;5110427;28;20385;-68
2023/07/25 02:21:10;;;;;;;510.38;249.98;;;;;;;;;;5108675;28;20413;-68
2023/07/25 02:23:36;;;;;;;482.45;254.68;;;;;;;;;;5110295;28;20383;-68
2023/07/25 02:26:02;;;;;;;590.15;265.42;;;;;;;;;;5111001;28;20392;-68
2023/07/25 02:28:28;;;;;;;;;;;;;;;;;;5110854;28;20056;-68
2023/07/25 02:31:10;;;;;;;;;;;;;;;;;;5112102;27;19919;-66
2023/07/25 02:34:17;;;;;;;;;;;;;;;;;;5144267;27;20348;-67
2023/07/25 02:36:43;;;;;;;;;;;;;;;;;;5111459;28;20491;-67
2023/07/25 02:39:09;;;;;;;;;;;;;;;;;;5111808;28;19908;-67
2023/07/25 02:42:34;;;;;;;;;;;;;;;;;;5091567;27;19912;-68
2023/07/25 02:47:30;;;;;;;;;;;;;;;;;;5091214;27;19918;-67
2023/07/25 02:49:56;;;;;;;;;;;;;;;;;;5091403;28;20002;-67
2023/07/25 02:52:22;;;;;;;;;;;;;;;;;;5091451;28;19912;-67
2023/07/25 02:54:48;;;;;;;;;;;;;;;;;;5091230;28;19912;-67
2023/07/25 03:06:07;;;;;;;;;;;;;;;;;;5112630;27;19947;-67
2023/07/25 03:10:24;;;;;;;;;;;;;;;;;;5131940;27;20014;-66
2023/07/25 03:15:17;;;;;;;;;;;;;;;;;;5092316;28;19917;-66
2023/07/25 03:18:44;;;;;;;;;;;;;;;;;;5091712;27;19916;-67
2023/07/25 03:21:10;;;;;;;;;;;;;;;;;;5091413;28;20002;-67
2023/07/25 03:25:07;;;;;;;;;;;;;;;;;;5112438;27;20381;-66
2023/07/25 03:30:54;;;;;;;;;;;;;;;;;;5111631;27;19916;-67
2023/07/25 03:33:20;;;;;;;;;;;;;;;;;;5110493;28;20011;-67
2023/07/25 03:36:37;;;;;;;;;;;;;;;;;;5112201;27;19916;-67
2023/07/25 03:40:32;;;;;;;;;;;;;;;;;;5112229;27;20402;-68
2023/07/25 03:47:36;;;;;;;;;;;;;;;;;;5091570;27;19912;-67
2023/07/25 03:55:36;;;;;;;;;;;;;;;;;;5092232;28;19917;-66
2023/07/25 03:58:01;;;;;;;;;;;;;;;;;;5091278;28;20375;-67
2023/07/25 04:00:27;;;;;;;;;;;;;;;;;;5091314;28;19915;-66
2023/07/25 04:02:53;;;;;;;;;;;;;;;;;;5091335;28;19916;-67
2023/07/25 04:05:19;;;;;;;;;;;;;;;;;;5090852;28;19912;-67
2023/07/25 04:08:23;;;;;;;;;;;;;;;;;;5091627;27;20377;-67
2023/07/25 04:15:35;;;;;;;;;;;;;;;;;;5092228;27;20272;-67
2023/07/25 04:18:01;;;;;;;;;;;;;;;;;;5091429;28;20285;-67
2023/07/25 04:20:27;;;;;;;;;;;;;;;;;;5090920;28;19908;-67
2023/07/25 04:22:53;;;;;;;;;;;;;;;;;;5091530;28;19908;-67
2023/07/25 04:25:19;;;;;;;;;;;;;;;;;;5091346;28;19961;-68
2023/07/25 04:33:41;;;;;;;;;;;;;;;;;;5091350;27;19917;-67
2023/07/25 04:36:56;;;;;;;;;;;;;;;;;;5092246;27;19923;-67
2023/07/25 04:40:29;;;;;;;;;;;;;;;;;;5111878;27;19912;-66
2023/07/25 04:44:19;;;;;;;;;;;;;;;;;;5111805;27;19919;-67
2023/07/25 04:48:19;;;;;;;;;;;;;;;;;;5111903;27;20402;-67
2023/07/25 04:50:45;;;;;;;;;;;;;;;;;;5111742;28;20007;-68
2023/07/25 04:53:11;;;;;;;;;;;;;;;;;;5111740;28;19908;-68
2023/07/25 04:55:37;;;;;;;;;;;;;;;;;;5111252;28;19909;-67
2023/07/25 04:58:03;;;;;;;;;;;;;;;;;;5111611;28;19961;-67
2023/07/25 05:00:30;;;;;;;;;;;;;;;;;;5111617;28;19912;-67
2023/07/25 05:02:56;;;;;;;;;;;;;;;;;;5111414;28;19915;-67
2023/07/25 05:05:22;;;;;;;;;;;;;;;;;;5111456;28;20291;-67
2023/07/25 05:09:48;;;;;;;;;;;;;;;;;;5091183;27;19916;-67
2023/07/25 05:12:14;;;;;;;;;;;;;;;;;;5091371;28;19919;-67
2023/07/25 05:14:40;;;;;;;;;;;;;;;;;;5091310;28;19912;-67
2023/07/25 05:20:25;;;;;;;;;;;;;;;;;;5153169;27;20018;-66
2023/07/25 05:22:51;;;;;;;;;;;;;;;;;;5152517;27;19950;-67
2023/07/25 05:25:17;;;;;;;;;;;;;;;;;;5153092;27;19907;-67
2023/07/25 05:27:43;;;;;;;;;;;;;;;;;;5153102;27;19911;-66
2023/07/25 05:34:30;;;;;;;;;;;;;;;;;;5153699;27;19927;-67
2023/07/25 05:36:56;;;;;;;;;;;;;;;;;;5140941;27;19919;-69
2023/07/25 05:39:22;;;;;;;;;;;;;;;;;;5114000;28;19943;-71
2023/07/25 05:41:48;;;;;;;;;;;;;;;;;;5131717;28;19919;-69
2023/07/25 05:44:14;;;;;;;;;;;;;;;;;;5131659;28;19999;-69
2023/07/25 05:46:40;;;;;;;;;;;;;;;;;;5144683;27;19957;-67
2023/07/25 05:49:06;;;;;;;;;;;;;;;;;;5152553;27;19907;-69
2023/07/25 05:51:32;;;;;;;;;;;;;;;;;;5151363;27;19952;-68
2023/07/25 05:53:58;;;;;;;;;;;;;;;;;;5133732;27;19923;-68
2023/07/25 05:56:24;;;;;;;;;;;;;;;;;;5152263;27;19908;-68
2023/07/25 06:01:04;;;;;;;;;;;;;;;;;;5091334;27;19916;-68
2023/07/25 06:03:30;;;;;;;;;;;;;;;;;;5091196;28;19974;-68
2023/07/25 06:05:56;;;;;;;;;;;;;;;;;;5088804;28;20364;-64
2023/07/25 06:11:41;;;;;;;;;;;;;;;;;;5091125;28;20291;-66
2023/07/25 06:14:07;;;;;;;;;;;;;;;;;;5085957;28;19985;-66
2023/07/25 06:16:33;;;;;;;;;;;;;;;;;;5089414;28;20272;-65
2023/07/25 06:18:59;;;;;;;;;;;;;;;;;;5085421;28;19912;-66
2023/07/25 06:21:25;;;;;;;;;;;;;;;;;;5082077;28;20361;-65
2023/07/25 06:23:51;;;;;;;;;;;;;;;;;;5087034;28;19924;-67
2023/07/25 06:26:17;;;;;;;;;;;;;;;;;;5090522;28;19916;-66
2023/07/25 06:28:44;;;;;;;;;;;;;;;;;;5088419;28;19913;-66
2023/07/25 06:36:33;;;;;;;;;;;;;;;;;;5148010;27;20339;-68
2023/07/25 06:38:59;;;;;;;;;;;;;;;;;;5142779;27;19970;-67
2023/07/25 06:41:25;;;;;;;;;;;;;;;;;;5151838;27;19954;-67
2023/07/25 06:43:51;;;;;;;;;;;;;;;;;;5135370;27;19915;-67
2023/07/25 06:47:08;;;;;;;;;;;;;;;;;;5111460;27;19916;-67
2023/07/25 06:49:34;;;;;;;;;;;;;;;;;;5111248;28;19995;-66
2023/07/25 06:52:00;;;;;;;;;;;;;;;;;;5111234;28;19955;-65
2023/07/25 06:54:26;;;;;;;;;;;;;;;;;;5110750;28;19916;-68
2023/07/25 06:56:52;;;;;;;;;;;;;;;;;;5109842;28;20387;-66
2023/07/25 07:01:45;;;;;;;;;;;;;;;;;;5127511;27;19919;-67
2023/07/25 07:04:11;;;;;;;;;;;;;;;;;;5132504;27;19969;-69
2023/07/25 07:06:37;;;;;;;;;;;;;;;;;;5136163;27;20339;-68
2023/07/25 07:09:03;;;;;;;;;;;;;;;;;;5151991;27;20275;-69
2023/07/25 07:11:28;;;;;;;;;;;;;;;;;;5136806;27;20271;-68
2023/07/25 07:13:54;;;;;;;;;;;;;;;;;;5103703;27;20007;-68
2023/07/25 07:17:45;;;;;;;;;;;;;;;;;;5110979;27;19926;-66
2023/07/25 07:20:11;;;;;;;;;;;;;;;;;;5111112;28;20265;-67
2023/07/25 07:22:37;;;;;;;;;;;;;;;;;;5109571;28;19912;-65
2023/07/25 07:25:03;;;;;;;;;;;;;;;;;;5105550;28;19912;-66
2023/07/25 07:27:28;;;;;;;;;;;;;;;;;;5090255;28;19912;-66
2023/07/25 07:29:54;;;;;;;;;;;;;;;;;;5090250;28;20014;-66
2023/07/25 07:32:20;;;;;;;;;;;;;;;;;;5088665;28;19916;-65
2023/07/25 07:34:46;;;;;;;;;;;;;;;;;;5090991;28;19915;-66
2023/07/25 07:37:12;;;;;;;;;;;;;;;;;;5090614;28;19943;-65
2023/07/25 07:39:39;;;;;;;;;;;;;;;;;;5096395;28;20381;-66
2023/07/25 07:42:05;;;;;;;;;;;;;;;;;;5101160;28;19912;-66
2023/07/25 07:44:31;;;;;;;;;;;;;;;;;;5091843;28;19916;-67
2023/07/25 07:46:57;;;;;;;;;;;;;;;;;;5099125;28;19919;-66
2023/07/25 07:49:23;;;;;;;;;;;;;;;;;;5106837;28;19915;-65
2023/07/25 07:51:49;;;;;;;;;;;;;;;;;;5108868;28;19909;-65
2023/07/25 07:54:15;;;;;;;;;;;;;;;;;;5106488;28;19908;-67
2023/07/25 07:56:41;;;;;;;;;;;;;;;;;;5095192;28;19921;-66
2023/07/25 07:59:07;;;;;;;;;;;;;;;;;;5090964;28;19921;-65
2023/07/25 08:01:33;;;;;;;;;;;;;;;;;;5106037;28;20003;-66
2023/07/25 08:03:59;;;;;;;;;;;;;;;;;;5097152;28;20317;-67
2023/07/25 08:06:25;;;;;;;;;;;;;;;;;;5087721;28;20296;-66
2023/07/25 08:08:51;;;;;;;;;;;;;;;;;;5082995;28;20508;-66
2023/07/25 08:11:16;;;;;;;;;;;;;;;;;;5070565;28;20323;-64
2023/07/25 08:13:42;;;;;;;;;;;;;;;;;;5074951;28;19916;-64
2023/07/25 08:16:08;;;;;;;;;;;;;;;;;;5098221;28;19931;-67
2023/07/25 08:18:34;;;;;;;;;;;;;;;;;;5102535;28;19912;-65
2023/07/25 08:21:00;;;;;;;;;;;;;;;;;;5092819;28;19912;-66
2023/07/25 08:23:26;;;;;;;;;;;;;;;;;;5100078;28;19912;-67
2023/07/25 08:25:52;;;;;;;;;;;;;;;;;;5099609;28;19916;-67
2023/07/25 08:28:18;;;;;;;;;;;;;;;;;;5091500;28;19919;-67
2023/07/25 08:30:44;;;;;;;;;;;;;;;;;;5118602;27;19923;-65
2023/07/25 08:33:15;;;;;;;;;;;;;;;;;;5082897;28;19913;-65
2023/07/25 08:35:41;;;;;;;;;;;;;;;;;;5075718;28;19913;-66
2023/07/25 08:38:07;;;;;;;;;;;;;;;;;;5086429;28;20049;-66
2023/07/25 08:40:33;;;;;;;;;;;;;;;;;;5094026;28;19915;-67
2023/07/25 08:42:59;;;;;;;;;;;;;;;;;;5089487;28;19912;-66
2023/07/25 08:45:25;;;;;;;;;;;;;;;;;;5088896;28;19991;-66
2023/07/25 08:47:51;;;;;;;;;;;;;;;;;;5085345;28;20069;-65
2023/07/25 08:50:17;;;;;;;;;;;;;;;;;;5075159;28;19913;-67
2023/07/25 08:52:43;;;;;;;;;;;;;;;;;;5077634;28;19923;-67
2023/07/25 08:55:09;;;;;;;;;;;;;;;;;;5089050;28;19913;-67
2023/07/25 08:57:35;;;;;;;;;;;;;;;;;;5082555;28;19928;-67
2023/07/25 09:00:01;;;;;;;;;;;;;;;;;;5077631;28;19959;-67
2023/07/25 09:02:27;;;;;;;;;;;;;;;;;;5086124;28;19912;-66
2023/07/25 09:04:53;;;;;;;;;;;;;;;;;;5092817;28;19908;-67
2023/07/25 09:07:19;;;;;;;;;;;;;;;;;;5094975;28;19908;-65
2023/07/25 09:09:45;;;;;;;;;;;;;;;;;;5085788;28;19920;-66
2023/07/25 09:12:11;;;;;;;;;;;;;;;;;;5084258;28;19977;-67
2023/07/25 09:14:39;;;;;;;;;;;;;;;;;;5079727;28;19977;-64
2023/07/25 09:17:05;;;;;;;;;;;;;;;;;;5089045;28;19967;-67
2023/07/25 09:19:31;;;;;;;;;;;;;;;;;;5092506;28;20495;-68
2023/07/25 09:21:57;;;;;;;;;;;;;;;;;;5079923;28;20296;-67
2023/07/25 09:24:23;;;;;;;;;;;;;;;;;;5070930;28;20286;-65
2023/07/25 09:26:49;;;;;;;;;;;;;;;;;;5072493;28;19908;-68
2023/07/25 09:29:16;;;;;;;;;;;;;;;;;;5072525;28;20051;-65
2023/07/25 09:31:42;;;;;;;;;;;;;;;;;;5081279;28;19908;-66
2023/07/25 09:34:08;;;;;;;;;;;;;;;;;;5089612;28;20450;-66
2023/07/25 09:36:34;;;;;;;;;;;;;;;;;;5086869;28;19973;-66
2023/07/25 09:39:00;;;;;;;;;;;;;;;;;;5072815;28;19916;-67
2023/07/25 09:41:26;;;;;;;;;;;;;;;;;;5074368;28;20011;-67
2023/07/25 09:43:52;;;;;;;;;;;;;;;;;;5071987;28;19916;-67
2023/07/25 09:46:18;;;;;;;;;;;;;;;;;;5085758;28;20310;-65
2023/07/25 09:48:44;;;;;;;;;;;;;;;;;;5085250;28;20269;-65
2023/07/25 09:51:10;;;;;;;;;;;;;;;;;;5078837;28;20539;-64
2023/07/25 09:53:36;;;;;;;;;;;;;;;;;;5052010;28;20120;-64
2023/07/25 09:56:02;;;;;;;;;;;;;;;;;;5075258;28;19923;-67
2023/07/25 09:58:28;;;;;;;;;;;;;;;;;;5083640;28;19917;-67
2023/07/25 10:00:54;;;;;;;;;;;;;;;;;;5071274;28;19913;-67
2023/07/25 10:03:20;;;;;;;;;;;;;;;;;;5090991;28;19939;-67
2023/07/25 10:05:46;;;;;;;;;;;;;;;;;;5079134;28;20019;-66
2023/07/25 10:08:12;;;;;;;;;;;;;;;;;;5074457;28;19999;-66
2023/07/25 10:10:38;;;;;;;;;;;;;;;;;;5075105;28;19916;-66
2023/07/25 10:13:04;;;;;;;;;;;;;;;;;;5090426;28;19964;-66
2023/07/25 10:15:30;;;;;;;;;;;;;;;;;;5094276;28;20434;-67
2023/07/25 10:17:56;;;;;;;;;;;;;;;;;;5075734;28;20007;-69
2023/07/25 10:20:25;;;;;;;;;;;;;;;;;;5072936;28;19923;-66
2023/07/25 10:22:51;;;;;;;;;;;;;;;;;;5080477;28;19955;-66
2023/07/25 10:25:17;;;;;;;;;;;;;;;;;;5083262;28;19947;-66
2023/07/25 10:27:42;;;;;;;;;;;;;;;;;;5070689;28;19909;-67
2023/07/25 10:30:08;;;;;;;;;;;;;;;;;;5073873;28;19919;-68
2023/07/25 10:32:34;;;;;;;;;;;;;;;;;;5081674;28;19961;-67
2023/07/25 10:35:00;;;;;;;;;;;;;;;;;;5077707;28;19916;-66
2023/07/25 10:37:27;;;;;;;;;;;;;;;;;;5075182;28;19920;-68
2023/07/25 10:39:53;;;;;;;;;;;;;;;;;;5081785;28;19912;-67
2023/07/25 10:42:19;;;;;;;;;;;;;;;;;;5077651;28;19912;-66
2023/07/25 10:44:45;;;;;;;;;;;;;;;;;;5073350;28;19916;-67
2023/07/25 10:47:11;;;;;;;;;;;;;;;;;;5073410;28;19908;-67
2023/07/25 10:49:37;;;;;;;;;;;;;;;;;;5073271;28;20011;-67
2023/07/25 10:52:03;;;;;;;;;;;;;;;;;;5072185;28;19908;-68
2023/07/25 10:54:29;;;;;;;;;;;;;;;;;;5071481;28;19908;-66
2023/07/25 10:56:55;;;;;;;;;;;;;;;;;;5093591;28;20022;-67
2023/07/25 10:59:20;;;;;;;;;;;;;;;;;;5092623;28;20337;-66
2023/07/25 11:01:47;;;;;;;;;;;;;;;;;;5086830;28;20636;-66
2023/07/25 11:04:13;;;;;;;;;;;;;;;;;;5074849;28;20011;-65
2023/07/25 11:06:39;;;;;;;;;;;;;;;;;;5071887;28;20057;-67
2023/07/25 11:09:05;;;;;;;;;;;;;;;;;;5076863;28;19916;-66
2023/07/25 11:11:31;;;;;;;;;;;;;;;;;;5083389;28;20003;-67
2023/07/25 11:13:57;;;;;;;;;;;;;;;;;;5091526;28;19961;-67
2023/07/25 11:16:23;;;;;;;;;;;;;;;;;;5070655;28;19921;-68
2023/07/25 11:18:49;;;;;;;;;;;;;;;;;;5075279;28;19912;-67
2023/07/25 11:21:15;;;;;;;;;;;;;;;;;;5084168;28;19996;-66
2023/07/25 11:23:41;;;;;;;;;;;;;;;;;;5081467;28;19913;-67
2023/07/25 11:26:07;;;;;;;;;;;;;;;;;;5090040;28;19919;-68
2023/07/25 11:28:33;;;;;;;;;;;;;;;;;;5089496;28;19914;-69
2023/07/25 11:30:59;;;;;;;;;;;;;;;;;;5091073;28;20330;-69
2023/07/25 11:33:25;;;;;;;;;;;;;;;;;;5086387;28;20436;-67
2023/07/25 11:35:51;;;;;;;;;;;;;;;;;;5086473;28;19924;-69
2023/07/25 11:38:17;;;;;;;;;;;;;;;;;;5084530;28;19999;-69
2023/07/25 11:40:42;;;;;;;;;;;;;;;;;;5090850;28;19916;-68
2023/07/25 11:43:08;;;;;;;;;;;;;;;;;;5074992;28;19913;-69
2023/07/25 11:45:34;;;;;;;;;;;;;;;;;;5071712;28;19916;-68
2023/07/25 11:48:00;;;;;;;;;;;;;;;;;;5072108;28;19920;-68
2023/07/25 11:50:26;;;;;;;;;;;;;;;;;;5073591;28;19928;-68
2023/07/25 11:52:52;;;;;;;;;;;;;;;;;;5074402;28;19913;-69
2023/07/25 11:55:18;;;;;;;;;;;;;;;;;;5072624;28;20370;-68
2023/07/25 11:57:44;;;;;;;;;;;;;;;;;;5072418;28;19955;-68
2023/07/25 12:00:15;;;;;;;;;;;;;;;;;;5087605;28;19915;-67
2023/07/25 12:02:41;;;;;;;;;;;;;;;;;;5074527;28;19939;-67
2023/07/25 12:05:07;;;;;;;;;;;;;;;;;;5076535;28;19943;-66
2023/07/25 12:07:33;;;;;;;;;;;;;;;;;;5077340;28;19911;-66
2023/07/25 12:09:59;;;;;;;;;;;;;;;;;;5076343;28;19904;-67
2023/07/25 12:12:25;;;;;;;;;;;;;;;;;;5076668;28;19904;-67
2023/07/25 12:14:51;;;;;;;;;;;;;;;;;;5076514;28;19905;-67
2023/07/25 12:17:18;;;;;;;;;;;;;;;;;;5079662;28;19916;-67
2023/07/25 12:19:44;;;;;;;;;;;;;;;;;;5077149;28;19958;-66
2023/07/25 12:22:10;;;;;;;;;;;;;;;;;;5077664;28;19904;-67
2023/07/25 12:24:36;;;;;;;;;;;;;;;;;;5090853;28;20276;-65
2023/07/25 12:27:02;;;;;;;;;;;;;;;;;;5076311;28;20261;-65
2023/07/25 12:29:28;;;;;;;;;;;;;;;;;;5077976;28;20419;-65
2023/07/25 12:31:54;;;;;;;;;;;;;;;;;;5093627;28;19918;-66
2023/07/25 12:34:20;;;;;;;;;;;;;;;;;;5089830;28;19931;-69
2023/07/25 12:36:46;;;;;;;;;;;;;;;;;;5095833;28;19919;-69
2023/07/25 12:39:12;;;;;;;;;;;;;;;;;;5096241;28;19947;-67
2023/07/25 12:41:39;;;;;;;;;;;;;;;;;;5096681;28;19984;-67
2023/07/25 12:44:05;;;;;;;;;;;;;;;;;;5096532;28;19904;-67
2023/07/25 12:46:31;;;;;;;;;;;;;;;;;;5096297;28;19998;-67
2023/07/25 12:48:57;;;;;;;;;;;;;;;;;;5096593;28;20372;-67
2023/07/25 12:51:23;;;;;;;;;;;;;;;;;;5096480;28;19904;-68
2023/07/25 12:53:49;;;;;;;;;;;;;;;;;;5096131;28;20399;-67
2023/07/25 12:56:15;;;;;;;;;;;;;;;;;;5096254;28;19927;-68
2023/07/25 12:58:41;;;;;;;;;;;;;;;;;;5096276;28;19949;-69
2023/07/25 13:01:07;;;;;;;;;;;;;;;;;;5095950;28;19904;-69
2023/07/25 13:03:36;;;;;;;;;;;;;;;;;;5096213;28;19990;-67
2023/07/25 13:06:02;;;;;;;;;;;;;;;;;;5096148;28;20364;-69
2023/07/25 13:08:28;;;;;;;;;;;;;;;;;;5095840;28;19904;-68
2023/07/25 13:10:54;;;;;;;;;;;;;;;;;;5096205;28;19908;-67
2023/07/25 13:13:20;;;;;;;;;;;;;;;;;;5095497;28;19911;-69
2023/07/25 13:15:46;;;;;;;;;;;;;;;;;;5095761;28;20257;-68
2023/07/25 13:18:12;;;;;;;;;;;;;;;;;;5096098;28;19908;-69
2023/07/25 13:20:38;;;;;;;;;;;;;;;;;;5095557;28;19904;-70
2023/07/25 13:23:04;;;;;;;;;;;;;;;;;;5095873;28;19965;-68
2023/07/25 13:25:30;;;;;;;;;;;;;;;;;;5095623;28;20279;-69
2023/07/25 13:27:55;;;;;;;;;;;;;;;;;;5095242;28;19904;-69
2023/07/25 13:30:21;;;;;;;;;;;;;;;;;;5095554;28;19907;-67
2023/07/25 13:32:47;;;;;;;;;;;;;;;;;;5094378;28;19908;-67
2023/07/25 13:35:13;;;;;;;;;;;;;;;;;;5094011;28;19904;-68
2023/07/25 13:37:39;;;;;;;;;;;;;;;;;;5095466;28;19912;-67
2023/07/25 13:40:05;;;;;;;;;;;;;;;;;;5095510;28;19904;-67
2023/07/25 13:42:31;;;;;;;;;;;;;;;;;;5095130;28;19908;-67
2023/07/25 13:44:57;;;;;;;;;;;;;;;;;;5095586;28;19927;-67
2023/07/25 13:47:23;;;;;;;;;;;;;;;;;;5095436;28;20275;-68
2023/07/25 13:49:49;;;;;;;;;;;;;;;;;;5094886;28;20249;-70
2023/07/25 13:52:15;;;;;;;;;;;;;;;;;;5095349;28;19911;-69
2023/07/25 13:54:41;;;;;;;;;;;;;;;;;;5095102;28;20007;-67
2023/07/25 13:57:07;;;;;;;;;;;;;;;;;;5094921;28;20375;-70
2023/07/25 13:59:33;;;;;;;;;;;;;;;;;;5095143;28;19911;-69
2023/07/25 14:02:00;;;;;;;;;;;;;;;;;;5095176;28;19973;-68
2023/07/25 14:04:26;;;;;;;;;;;;;;;;;;5093425;28;19903;-69
2023/07/25 14:06:52;;;;;;;;;;;;;;;;;;5095033;28;20347;-69
2023/07/25 14:09:21;;;;;;;;;;;;;;;;;;5094971;28;20291;-68
2023/07/25 14:11:47;;;;;;;;;;;;;;;;;;5094473;28;19908;-69
2023/07/25 14:14:12;;;;;;;;;;;;;;;;;;5094807;28;19948;-69
2023/07/25 14:16:38;;;;;;;;;;;;;;;;;;5094046;28;19986;-69
2023/07/25 14:19:04;;;;;;;;;;;;;;;;;;5094794;28;19915;-69
2023/07/25 14:21:30;;;;;;;;;;;;;;;;;;5094705;28;19904;-68
2023/07/25 14:23:56;;;;;;;;;;;;;;;;;;5094324;28;19992;-68
2023/07/25 14:26:22;;;;;;;;;;;;;;;;;;5094158;28;19973;-69
2023/07/25 14:28:48;;;;;;;;;;;;;;;;;;5094583;28;19927;-69
2023/07/25 14:31:14;;;;;;;;;;;;;;;;;;5094144;28;19915;-69
2023/07/25 14:33:40;;;;;;;;;;;;;;;;;;5094534;28;19958;-69
2023/07/25 14:36:06;;;;;;;;;;;;;;;;;;5093128;28;20380;-68
2023/07/25 14:38:32;;;;;;;;;;;;;;;;;;5094509;28;19911;-67
2023/07/25 14:40:58;;;;;;;;;;;;;;;;;;5094478;28;19904;-68
2023/07/25 14:43:24;;;;;;;;;;;;;;;;;;5094445;28;19953;-68
2023/07/25 14:45:50;;;;;;;;;;;;;;;;;;5093983;28;19908;-69
2023/07/25 14:48:16;;;;;;;;;;;;;;;;;;5094477;28;20360;-69
2023/07/25 14:50:42;;;;;;;;;;;;;;;;;;5094272;28;20386;-70
2023/07/25 14:53:07;;;;;;;;;;;;;;;;;;5094020;28;20271;-69
2023/07/25 14:55:33;;;;;;;;;;;;;;;;;;5094197;28;19911;-68
2023/07/25 14:57:59;;;;;;;;;;;;;;;;;;5094240;28;19908;-69
2023/07/25 15:00:25;;;;;;;;;;;;;;;;;;5093742;28;19904;-68
2023/07/25 15:02:51;;;;;;;;;;;;;;;;;;5094093;28;20276;-68
2023/07/25 15:05:17;;;;;;;;;;;;;;;;;;5094316;28;19904;-69
2023/07/25 15:07:43;;;;;;;;;;;;;;;;;;5093641;28;19904;-69
2023/07/25 15:10:09;;;;;;;;;;;;;;;;;;5093792;28;19935;-67
2023/07/25 15:12:35;;;;;;;;;;;;;;;;;;5093918;28;19904;-68
2023/07/25 15:15:01;;;;;;;;;;;;;;;;;;5093646;28;19995;-68
2023/07/25 15:17:28;;;;;;;;;;;;;;;;;;5093709;28;19944;-68
2023/07/25 15:19:54;;;;;;;;;;;;;;;;;;5093705;28;19911;-69
2023/07/25 15:22:20;;;;;;;;;;;;;;;;;;5093836;28;19904;-68
2023/07/25 15:24:45;;;;;;;;;;;;;;;;;;5092441;28;19953;-68
2023/07/25 15:27:11;;;;;;;;;;;;;;;;;;5093476;28;19911;-68
2023/07/25 15:29:37;;;;;;;;;;;;;;;;;;5093799;28;19911;-68
2023/07/25 15:32:03;;;;;;;;;;;;;;;;;;5093828;28;19904;-68
2023/07/25 15:34:29;;;;;;;;;;;;;;;;;;5092129;28;19904;-68
2023/07/25 15:36:55;;;;;;;;;;;;;;;;;;5093700;28;19947;-68
2023/07/25 15:39:22;;;;;;;;;;;;;;;;;;5097535;28;19911;-68
2023/07/25 15:41:48;;;;;;;;;;;;;;;;;;5097503;28;19903;-67
2023/07/25 15:44:13;;;;;;;;;;;;;;;;;;5097929;28;20046;-68
2023/07/25 15:46:39;;;;;;;;;;;;;;;;;;5097761;28;19911;-68
2023/07/25 15:49:05;;;;;;;;;;;;;;;;;;5097376;28;20340;-69
2023/07/25 15:51:31;;;;;;;;;;;;;;;;;;5096294;28;19908;-68
2023/07/25 15:53:57;;;;;;;;;;;;;;;;;;5097548;28;20315;-69
2023/07/25 15:56:23;;;;;;;;;;;;;;;;;;5097191;28;20328;-69
2023/07/25 15:58:50;;;;;;;;;;;;;;;;;;5097545;28;20002;-69
2023/07/25 16:01:17;;;;;;;;;;;;;;;;;;5097412;28;19930;-68
2023/07/25 16:03:43;;;;;;;;;;;;;;;;;;5097028;28;19905;-68
2023/07/25 16:06:09;;;;;;;;;;;;;;;;;;5097405;28;19904;-69
2023/07/25 16:08:35;;;;;;;;;;;;;;;;;;5095945;28;19911;-69
2023/07/25 16:11:01;;;;;;;;;;;;;;;;;;5096872;28;19904;-68
2023/07/25 16:13:27;;;;;;;;;;;;;;;;;;5097177;28;19904;-68
2023/07/25 16:15:53;;;;;;;;;;;;;;;;;;5096868;28;19987;-69
2023/07/25 16:18:19;;;;;;;;;;;;;;;;;;5096753;28;19904;-69
2023/07/25 16:20:44;;;;;;;;;;;;;;;;;;5097040;28;19908;-68
2023/07/25 16:23:10;;;;;;;;;;;;;;;;;;5096967;28;20284;-68
2023/07/25 16:25:36;;;;;;;;;;;;;;;;;;5096794;28;20335;-68
2023/07/25 16:28:02;;;;;;;;;;;;;;;;;;5097131;28;20322;-69
2023/07/25 16:30:28;;;;;;;;;;;;;;;;;;5096966;28;20315;-69
2023/07/25 16:32:54;;;;;;;;;;;;;;;;;;5096848;28;20360;-69
2023/07/25 16:35:20;;;;;;;;;;;;;;;;;;5096749;28;20321;-69
2023/07/25 16:37:46;;;;;;;;;;;;;;;;;;5096232;28;20284;-69
2023/07/25 16:40:12;;;;;;;;;;;;;;;;;;5096637;28;19930;-68
2023/07/25 16:42:40;;;;;;;;;;;;;;;;;;5096546;28;19918;-69
2023/07/25 16:45:06;;;;;;;;;;;;;;;;;;5094936;28;19904;-69
2023/07/25 16:47:31;;;;;;;;;;;;;;;;;;5096659;28;19904;-69
2023/07/25 16:49:57;;;;;;;;;;;;;;;;;;5096060;28;19910;-69
2023/07/25 16:52:23;;;;;;;;;;;;;;;;;;5096121;28;20000;-68
2023/07/25 16:54:49;;;;;;;;;;;;;;;;;;5096291;28;19908;-68
2023/07/25 16:57:15;;;;;;;;;;;;;;;;;;5096174;28;19912;-68
2023/07/25 16:59:41;;;;;;;;;;;;;;;;;;5095949;28;19944;-69
2023/07/25 17:02:07;;;;;;;;;;;;;;;;;;5096262;28;19949;-68
2023/07/25 17:04:33;;;;;;;;;;;;;;;;;;5094850;28;19949;-68
2023/07/25 17:06:59;;;;;;;;;;;;;;;;;;5095762;28;20018;-69
2023/07/25 17:09:25;;;;;;;;;;;;;;;;;;5096050;28;19910;-68
2023/07/25 17:11:51;;;;;;;;;;;;;;;;;;5094800;28;19904;-69
2023/07/25 17:14:17;;;;;;;;;;;;;;;;;;5095666;28;19904;-67
2023/07/25 17:16:43;;;;;;;;;;;;;;;;;;5095534;28;19916;-68
2023/07/25 17:19:09;;;;;;;;;;;;;;;;;;5096089;28;19911;-69
2023/07/25 17:21:35;;;;;;;;;;;;;;;;;;5095539;28;19908;-69
2023/07/25 17:24:03;;;;;;;;;;;;;;;;;;5094566;28;20356;-66
2023/07/25 17:26:29;;;;;;;;;;;;;;;;;;5095663;28;19912;-68
2023/07/25 17:28:55;;;;;;;;;;;;;;;;;;5095618;28;20390;-69
2023/07/25 17:31:21;;;;;;;;;;;;;;;;;;5095714;28;19904;-69
2023/07/25 17:33:46;;;;;;;;;;;;;;;;;;5095287;28;19904;-67
2023/07/25 17:36:12;;;;;;;;;;;;;;;;;;5095495;28;19918;-67
2023/07/25 17:38:38;;;;;;;;;;;;;;;;;;5094289;28;19903;-67
2023/07/25 17:41:04;;;;;;;;;;;;;;;;;;5095150;28;19908;-67
2023/07/25 17:43:30;;;;;;;;;;;;;;;;;;5095535;28;19904;-67
2023/07/25 17:45:56;;;;;;;;;;;;;;;;;;5095428;28;19915;-67
2023/07/25 17:48:23;;;;;;;;;;;;;;;;;;5094954;28;20041;-68
2023/07/25 17:50:49;;;;;;;;;;;;;;;;;;5095447;28;19911;-68
2023/07/25 17:53:15;;;;;;;;;;;;;;;;;;5095314;28;19904;-68
2023/07/25 17:55:41;;;;;;;;;;;;;;;;;;5094866;28;19929;-68
2023/07/25 17:58:10;;;;;;;;;;;;;;;;;;5095365;28;19904;-69
2023/07/25 18:00:36;;;;;;;;;;;;;;;;;;5094330;28;19904;-68
2023/07/25 18:03:02;;;;;;;;;;;;;;;;;;5094692;28;19904;-69
2023/07/25 18:05:28;;;;;;;;;;;;;;;;;;5094989;28;19911;-68
2023/07/25 18:07:54;;;;;;;;;;;;;;;;;;5093625;28;19915;-68
2023/07/25 18:10:20;;;;;;;;;;;;;;;;;;5094495;28;19904;-68
2023/07/25 18:12:46;;;;;;;;;;;;;;;;;;5095262;28;20282;-68
2023/07/25 18:15:12;;;;;;;;;;;;;;;;;;5093603;28;20390;-69
2023/07/25 18:17:38;;;;;;;;;;;;;;;;;;5093990;28;19916;-69
2023/07/25 18:20:04;;;;;;;;;;;;;;;;;;5093447;28;19915;-69
2023/07/25 18:22:31;;;;;;;;;;;;;;;;;;5093358;28;19999;-68
2023/07/25 18:24:57;;;;;;;;;;;;;;;;;;5094348;28;19904;-68
2023/07/25 18:27:23;;;;;;;;;;;;;;;;;;5094624;28;19904;-69
2023/07/25 18:29:49;;;;;;;;;;;;;;;;;;5092990;28;19939;-69
2023/07/25 18:32:15;;;;;;;;;;;;;;;;;;5094624;28;20383;-69
2023/07/25 18:34:41;;;;;;;;;;;;;;;;;;5094520;28;19904;-70
2023/07/25 18:37:07;;;;;;;;;;;;;;;;;;5092858;28;19912;-69
2023/07/25 18:39:33;;;;;;;;;;;;;;;;;;5094497;28;19904;-70
2023/07/25 18:41:59;;;;;;;;;;;;;;;;;;5094700;28;19911;-69
2023/07/25 18:44:25;;;;;;;;;;;;;;;;;;5092683;28;19911;-69
2023/07/25 18:46:51;;;;;;;;;;;;;;;;;;5094295;28;19910;-69